sensor_id;sensor_type;location;lat;lon;timestamp;pressure;altitude;pressure_sealevel;temperature;humidity
46412;BME280;32113;42.012;24.870;2023-02-28T00:00:11;99515.41;;;14.14;47.25
46412;BME280;32113;42.012;24.870;2023-02-28T00:02:41;99511.06;;;14.14;47.47
46412;BME280;32113;42.012;24.870;2023-02-28T00:05:09;99517.00;;;14.19;47.43
46412;BME280;32113;42.012;24.870;2023-02-28T00:07:35;99513.47;;;14.25;47.55
46412;BME280;32113;42.012;24.870;2023-02-28T00:10:01;99509.19;;;14.24;47.54
46412;BME280;32113;42.012;24.870;2023-02-28T00:12:27;99511.78;;;14.23;47.43
46412;BME280;32113;42.012;24.870;2023-02-28T00:14:53;99512.53;;;14.29;47.28
46412;BME280;32113;42.012;24.870;2023-02-28T00:17:19;99511.59;;;14.34;47.09
46412;BME280;32113;42.012;24.870;2023-02-28T00:19:49;99513.41;;;14.30;47.39
46412;BME280;32113;42.012;24.870;2023-02-28T00:22:16;99510.88;;;14.27;47.09
46412;BME280;32113;42.012;24.870;2023-02-28T00:24:42;99521.22;;;14.25;47.21
46412;BME280;32113;42.012;24.870;2023-02-28T00:27:07;99518.78;;;14.17;47.07
46412;BME280;32113;42.012;24.870;2023-02-28T00:29:33;99521.50;;;14.08;47.13
46412;BME280;32113;42.012;24.870;2023-02-28T00:31:58;99521.03;;;13.86;48.29
46412;BME280;32113;42.012;24.870;2023-02-28T00:34:24;99512.59;;;13.74;48.59
46412;BME280;32113;42.012;24.870;2023-02-28T00:36:49;99515.25;;;13.71;48.85
46412;BME280;32113;42.012;24.870;2023-02-28T00:39:15;99535.13;;;13.64;48.83
46412;BME280;32113;42.012;24.870;2023-02-28T00:41:40;99525.63;;;13.66;49.19
46412;BME280;32113;42.012;24.870;2023-02-28T00:44:06;99532.44;;;13.71;48.54
46412;BME280;32113;42.012;24.870;2023-02-28T00:46:31;99527.19;;;13.75;48.57
46412;BME280;32113;42.012;24.870;2023-02-28T00:48:57;99530.53;;;13.82;48.46
46412;BME280;32113;42.012;24.870;2023-02-28T00:51:22;99519.38;;;13.82;47.91
46412;BME280;32113;42.012;24.870;2023-02-28T00:53:48;99520.97;;;13.89;47.96
46412;BME280;32113;42.012;24.870;2023-02-28T00:56:13;99532.94;;;13.93;47.25
46412;BME280;32113;42.012;24.870;2023-02-28T00:58:39;99537.25;;;13.92;47.48
46412;BME280;32113;42.012;24.870;2023-02-28T01:01:05;99540.66;;;13.93;47.57
46412;BME280;32113;42.012;24.870;2023-02-28T01:03:30;99539.09;;;13.86;48.16
46412;BME280;32113;42.012;24.870;2023-02-28T01:05:56;99553.66;;;13.88;47.53
46412;BME280;32113;42.012;24.870;2023-02-28T01:08:22;99545.22;;;13.77;48.16
46412;BME280;32113;42.012;24.870;2023-02-28T01:10:47;99553.22;;;13.58;48.20
46412;BME280;32113;42.012;24.870;2023-02-28T01:13:13;99567.09;;;13.52;48.35
46412;BME280;32113;42.012;24.870;2023-02-28T01:15:42;99570.91;;;13.22;49.58
46412;BME280;32113;42.012;24.870;2023-02-28T01:18:08;99579.16;;;12.75;51.62
46412;BME280;32113;42.012;24.870;2023-02-28T01:20:36;99584.56;;;12.50;53.16
46412;BME280;32113;42.012;24.870;2023-02-28T01:23:02;99578.59;;;12.46;53.32
46412;BME280;32113;42.012;24.870;2023-02-28T01:25:28;99580.25;;;12.52;53.34
46412;BME280;32113;42.012;24.870;2023-02-28T01:27:53;99583.75;;;12.45;53.80
46412;BME280;32113;42.012;24.870;2023-02-28T01:30:19;99587.38;;;12.24;54.92
46412;BME280;32113;42.012;24.870;2023-02-28T01:32:44;99596.91;;;12.11;55.30
46412;BME280;32113;42.012;24.870;2023-02-28T01:35:09;99605.63;;;11.88;56.45
46412;BME280;32113;42.012;24.870;2023-02-28T01:37:35;99609.16;;;11.71;57.26
46412;BME280;32113;42.012;24.870;2023-02-28T01:40:01;99600.53;;;11.77;56.79
46412;BME280;32113;42.012;24.870;2023-02-28T01:42:26;99606.56;;;11.73;56.94
46412;BME280;32113;42.012;24.870;2023-02-28T01:47:36;99611.78;;;11.60;58.34
46412;BME280;32113;42.012;24.870;2023-02-28T01:50:07;99605.66;;;11.78;57.16
46412;BME280;32113;42.012;24.870;2023-02-28T01:52:34;99605.63;;;11.85;57.00
46412;BME280;32113;42.012;24.870;2023-02-28T01:55:02;99614.13;;;11.99;56.53
46412;BME280;32113;42.012;24.870;2023-02-28T01:57:33;99622.50;;;12.28;55.92
46412;BME280;32113;42.012;24.870;2023-02-28T02:00:23;99621.47;;;12.47;55.19
46412;BME280;32113;42.012;24.870;2023-02-28T02:02:53;99621.47;;;12.47;54.97
46412;BME280;32113;42.012;24.870;2023-02-28T02:05:27;99616.31;;;12.47;53.64
46412;BME280;32113;42.012;24.870;2023-02-28T02:08:05;99619.91;;;12.31;53.22
46412;BME280;32113;42.012;24.870;2023-02-28T02:10:44;99629.31;;;12.35;52.74
46412;BME280;32113;42.012;24.870;2023-02-28T02:18:59;99626.00;;;12.20;52.26
46412;BME280;32113;42.012;24.870;2023-02-28T02:27:37;99620.88;;;12.13;53.09
46412;BME280;32113;42.012;24.870;2023-02-28T02:30:27;99628.56;;;12.19;52.82
46412;BME280;32113;42.012;24.870;2023-02-28T02:38:48;99636.31;;;12.16;52.74
46412;BME280;32113;42.012;24.870;2023-02-28T02:41:23;99628.69;;;11.99;53.40
46412;BME280;32113;42.012;24.870;2023-02-28T02:46:21;99646.78;;;11.81;53.62
46412;BME280;32113;42.012;24.870;2023-02-28T02:48:47;99646.84;;;11.74;54.39
46412;BME280;32113;42.012;24.870;2023-02-28T02:51:16;99657.91;;;11.82;55.20
46412;BME280;32113;42.012;24.870;2023-02-28T02:53:53;99660.41;;;11.96;54.44
46412;BME280;32113;42.012;24.870;2023-02-28T02:56:24;99667.25;;;12.05;56.28
46412;BME280;32113;42.012;24.870;2023-02-28T02:58:53;99668.00;;;12.19;55.78
46412;BME280;32113;42.012;24.870;2023-02-28T03:01:23;99657.69;;;12.26;57.39
46412;BME280;32113;42.012;24.870;2023-02-28T03:04:16;99673.06;;;12.32;56.50
46412;BME280;32113;42.012;24.870;2023-02-28T03:06:42;99663.56;;;12.40;56.08
46412;BME280;32113;42.012;24.870;2023-02-28T03:09:07;99678.88;;;12.57;55.68
46412;BME280;32113;42.012;24.870;2023-02-28T03:11:35;99675.41;;;12.61;56.98
46412;BME280;32113;42.012;24.870;2023-02-28T03:14:25;99679.63;;;12.70;59.71
46412;BME280;32113;42.012;24.870;2023-02-28T03:25:20;99681.91;;;11.87;64.60
46412;BME280;32113;42.012;24.870;2023-02-28T03:30:49;99695.53;;;12.08;63.48
46412;BME280;32113;42.012;24.870;2023-02-28T03:33:34;99698.91;;;12.18;62.89
46412;BME280;32113;42.012;24.870;2023-02-28T03:36:20;99704.03;;;12.19;62.00
46412;BME280;32113;42.012;24.870;2023-02-28T03:38:56;99706.59;;;12.22;62.09
46412;BME280;32113;42.012;24.870;2023-02-28T03:41:31;99710.03;;;12.21;62.42
46412;BME280;32113;42.012;24.870;2023-02-28T03:44:03;99707.50;;;12.12;62.47
46412;BME280;32113;42.012;24.870;2023-02-28T03:46:34;99716.09;;;12.09;63.14
46412;BME280;32113;42.012;24.870;2023-02-28T03:52:03;99720.38;;;12.11;63.78
46412;BME280;32113;42.012;24.870;2023-02-28T03:54:35;99727.22;;;12.13;63.61
46412;BME280;32113;42.012;24.870;2023-02-28T03:57:10;99726.28;;;12.24;63.02
46412;BME280;32113;42.012;24.870;2023-02-28T03:59:42;99727.16;;;12.19;63.31
46412;BME280;32113;42.012;24.870;2023-02-28T04:02:09;99730.56;;;12.26;63.94
46412;BME280;32113;42.012;24.870;2023-02-28T04:04:34;99736.53;;;12.34;63.02
46412;BME280;32113;42.012;24.870;2023-02-28T04:07:05;99738.22;;;12.40;62.94
46412;BME280;32113;42.012;24.870;2023-02-28T04:09:31;99741.78;;;12.19;63.85
46412;BME280;32113;42.012;24.870;2023-02-28T04:11:56;99746.16;;;11.96;64.83
46412;BME280;32113;42.012;24.870;2023-02-28T04:14:22;99751.25;;;12.01;65.40
46412;BME280;32113;42.012;24.870;2023-02-28T04:16:48;99745.25;;;12.04;65.00
46412;BME280;32113;42.012;24.870;2023-02-28T04:19:14;99751.25;;;12.11;64.45
46412;BME280;32113;42.012;24.870;2023-02-28T04:21:50;99748.69;;;12.04;65.27
46412;BME280;32113;42.012;24.870;2023-02-28T04:24:19;99742.72;;;11.99;65.01
46412;BME280;32113;42.012;24.870;2023-02-28T04:26:47;99747.84;;;11.99;64.80
46412;BME280;32113;42.012;24.870;2023-02-28T04:29:19;99747.81;;;12.04;65.00
46412;BME280;32113;42.012;24.870;2023-02-28T04:31:45;99751.25;;;12.09;64.34
46412;BME280;32113;42.012;24.870;2023-02-28T04:34:10;99752.94;;;12.18;64.04
46412;BME280;32113;42.012;24.870;2023-02-28T04:36:35;99746.03;;;12.23;63.61
46412;BME280;32113;42.012;24.870;2023-02-28T04:39:01;99746.00;;;12.25;62.75
46412;BME280;32113;42.012;24.870;2023-02-28T04:41:26;99753.72;;;12.25;62.92
46412;BME280;32113;42.012;24.870;2023-02-28T04:43:52;99752.09;;;12.11;63.27
46412;BME280;32113;42.012;24.870;2023-02-28T04:46:18;99765.00;;;11.94;63.74
46412;BME280;32113;42.012;24.870;2023-02-28T04:48:44;99769.31;;;11.92;63.99
46412;BME280;32113;42.012;24.870;2023-02-28T04:51:12;99769.31;;;11.90;63.37
46412;BME280;32113;42.012;24.870;2023-02-28T04:53:40;99770.97;;;12.02;63.38
46412;BME280;32113;42.012;24.870;2023-02-28T04:56:07;99770.13;;;12.08;62.90
46412;BME280;32113;42.012;24.870;2023-02-28T04:58:33;99774.41;;;12.03;63.52
46412;BME280;32113;42.012;24.870;2023-02-28T05:01:04;99768.41;;;12.07;63.30
46412;BME280;32113;42.012;24.870;2023-02-28T05:03:39;99772.69;;;12.11;62.96
46412;BME280;32113;42.012;24.870;2023-02-28T05:06:06;99771.00;;;11.91;63.54
46412;BME280;32113;42.012;24.870;2023-02-28T05:08:31;99776.19;;;11.88;63.48
46412;BME280;32113;42.012;24.870;2023-02-28T05:10:57;99783.03;;;11.91;63.18
46412;BME280;32113;42.012;24.870;2023-02-28T05:13:22;99777.84;;;11.95;63.39
46412;BME280;32113;42.012;24.870;2023-02-28T05:15:48;99789.00;;;11.93;63.48
46412;BME280;32113;42.012;24.870;2023-02-28T05:18:13;99787.34;;;11.82;63.99
46412;BME280;32113;42.012;24.870;2023-02-28T05:20:38;99789.03;;;11.88;63.85
46412;BME280;32113;42.012;24.870;2023-02-28T05:23:04;99789.91;;;11.87;63.38
46412;BME280;32113;42.012;24.870;2023-02-28T05:25:29;99794.19;;;11.83;63.60
46412;BME280;32113;42.012;24.870;2023-02-28T05:27:55;99789.94;;;11.76;64.02
46412;BME280;32113;42.012;24.870;2023-02-28T05:30:20;99801.94;;;11.76;64.04
46412;BME280;32113;42.012;24.870;2023-02-28T05:32:50;99803.63;;;11.78;63.95
46412;BME280;32113;42.012;24.870;2023-02-28T05:35:16;99802.75;;;11.84;63.71
46412;BME280;32113;42.012;24.870;2023-02-28T05:37:41;99811.28;;;11.97;62.98
46412;BME280;32113;42.012;24.870;2023-02-28T05:40:07;99816.47;;;11.91;62.75
46412;BME280;32113;42.012;24.870;2023-02-28T05:42:36;99821.59;;;11.88;63.86
46412;BME280;32113;42.012;24.870;2023-02-28T05:45:02;99822.47;;;11.83;63.76
46412;BME280;32113;42.012;24.870;2023-02-28T05:47:28;99823.34;;;11.84;63.47
46412;BME280;32113;42.012;24.870;2023-02-28T05:49:53;99825.91;;;11.86;63.36
46412;BME280;32113;42.012;24.870;2023-02-28T05:52:18;99835.31;;;11.82;63.59
46412;BME280;32113;42.012;24.870;2023-02-28T05:54:44;99831.91;;;11.78;63.81
46412;BME280;32113;42.012;24.870;2023-02-28T05:57:11;99831.91;;;11.83;63.80
46412;BME280;32113;42.012;24.870;2023-02-28T05:59:36;99825.88;;;11.89;63.52
46412;BME280;32113;42.012;24.870;2023-02-28T06:02:05;99842.16;;;11.92;63.03
46412;BME280;32113;42.012;24.870;2023-02-28T06:04:30;99845.63;;;11.77;64.04
46412;BME280;32113;42.012;24.870;2023-02-28T06:06:56;99843.06;;;11.74;63.85
46412;BME280;32113;42.012;24.870;2023-02-28T06:09:22;99841.34;;;11.76;63.22
46412;BME280;32113;42.012;24.870;2023-02-28T06:11:48;99844.81;;;11.63;64.04
46412;BME280;32113;42.012;24.870;2023-02-28T06:14:17;99845.66;;;11.59;63.95
46412;BME280;32113;42.012;24.870;2023-02-28T06:16:43;99857.66;;;11.66;64.28
46412;BME280;32113;42.012;24.870;2023-02-28T06:19:09;99855.91;;;11.77;63.96
46412;BME280;32113;42.012;24.870;2023-02-28T06:21:35;99849.03;;;11.86;63.31
46412;BME280;32113;42.012;24.870;2023-02-28T06:24:02;99861.91;;;11.87;63.34
46412;BME280;32113;42.012;24.870;2023-02-28T06:26:28;99866.19;;;11.85;63.35
46412;BME280;32113;42.012;24.870;2023-02-28T06:28:53;99870.47;;;11.88;63.52
46412;BME280;32113;42.012;24.870;2023-02-28T06:31:19;99877.31;;;11.81;63.27
46412;BME280;32113;42.012;24.870;2023-02-28T06:33:46;99875.66;;;11.61;64.49
46412;BME280;32113;42.012;24.870;2023-02-28T06:36:13;99866.25;;;11.60;64.42
46412;BME280;32113;42.012;24.870;2023-02-28T06:38:39;99864.50;;;11.67;64.71
46412;BME280;32113;42.012;24.870;2023-02-28T06:41:06;99863.63;;;11.74;63.73
46412;BME280;32113;42.012;24.870;2023-02-28T06:43:35;99861.06;;;11.74;64.23
46412;BME280;32113;42.012;24.870;2023-02-28T06:46:02;99867.94;;;11.58;64.18
46412;BME280;32113;42.012;24.870;2023-02-28T06:48:28;99863.66;;;11.57;64.46
46412;BME280;32113;42.012;24.870;2023-02-28T06:51:12;99863.66;;;11.66;64.43
46412;BME280;32113;42.012;24.870;2023-02-28T06:53:38;99873.91;;;11.73;64.45
46412;BME280;32113;42.012;24.870;2023-02-28T06:56:08;99875.63;;;11.83;64.02
46412;BME280;32113;42.012;24.870;2023-02-28T06:58:34;99873.88;;;11.85;63.55
46412;BME280;32113;42.012;24.870;2023-02-28T07:01:00;99869.59;;;11.79;63.78
46412;BME280;32113;42.012;24.870;2023-02-28T07:03:26;99869.63;;;11.78;64.80
46412;BME280;32113;42.012;24.870;2023-02-28T07:05:52;99862.78;;;11.83;64.08
46412;BME280;32113;42.012;24.870;2023-02-28T07:08:17;99865.38;;;11.74;63.81
46412;BME280;32113;42.012;24.870;2023-02-28T07:10:43;99868.78;;;11.80;63.94
46412;BME280;32113;42.012;24.870;2023-02-28T07:13:09;99874.75;;;11.79;65.82
46412;BME280;32113;42.012;24.870;2023-02-28T07:15:35;99867.91;;;11.80;66.09
46412;BME280;32113;42.012;24.870;2023-02-28T07:18:01;99878.19;;;11.81;66.42
46412;BME280;32113;42.012;24.870;2023-02-28T07:20:26;99880.75;;;11.80;66.43
46412;BME280;32113;42.012;24.870;2023-02-28T07:22:52;99873.94;;;11.62;67.24
46412;BME280;32113;42.012;24.870;2023-02-28T07:25:25;99878.22;;;11.60;67.41
46412;BME280;32113;42.012;24.870;2023-02-28T07:27:53;99871.38;;;11.60;67.10
46412;BME280;32113;42.012;24.870;2023-02-28T07:30:19;99870.53;;;11.64;67.43
46412;BME280;32113;42.012;24.870;2023-02-28T07:32:45;99868.75;;;11.73;66.37
46412;BME280;32113;42.012;24.870;2023-02-28T07:35:11;99873.03;;;11.85;66.10
46412;BME280;32113;42.012;24.870;2023-02-28T07:37:36;99879.06;;;11.80;65.96
46412;BME280;32113;42.012;24.870;2023-02-28T07:40:04;99876.47;;;11.87;65.45
46412;BME280;32113;42.012;24.870;2023-02-28T07:42:36;99874.75;;;11.95;65.00
46412;BME280;32113;42.012;24.870;2023-02-28T07:45:03;99875.56;;;12.06;64.36
46412;BME280;32113;42.012;24.870;2023-02-28T07:47:29;99881.59;;;12.07;64.19
46412;BME280;32113;42.012;24.870;2023-02-28T07:49:55;99881.56;;;12.01;65.07
46412;BME280;32113;42.012;24.870;2023-02-28T07:52:21;99873.88;;;11.98;65.45
46412;BME280;32113;42.012;24.870;2023-02-28T07:54:49;99882.44;;;12.12;64.57
46412;BME280;32113;42.012;24.870;2023-02-28T07:57:14;99884.97;;;12.18;64.69
46412;BME280;32113;42.012;24.870;2023-02-28T07:59:40;99882.38;;;12.29;64.29
46412;BME280;32113;42.012;24.870;2023-02-28T08:02:05;99884.03;;;12.38;63.91
46412;BME280;32113;42.012;24.870;2023-02-28T08:04:33;99896.94;;;12.37;64.88
46412;BME280;32113;42.012;24.870;2023-02-28T08:06:59;99892.66;;;12.26;64.74
46412;BME280;32113;42.012;24.870;2023-02-28T08:09:24;99895.22;;;12.29;65.03
46412;BME280;32113;42.012;24.870;2023-02-28T08:11:50;99885.78;;;12.31;65.34
46412;BME280;32113;42.012;24.870;2023-02-28T08:14:15;99891.75;;;12.40;65.09
46412;BME280;32113;42.012;24.870;2023-02-28T08:16:41;99884.81;;;12.57;64.74
46412;BME280;32113;42.012;24.870;2023-02-28T08:19:08;99888.25;;;12.56;64.38
46412;BME280;32113;42.012;24.870;2023-02-28T08:21:34;99886.50;;;12.58;64.24
46412;BME280;32113;42.012;24.870;2023-02-28T08:23:59;99887.38;;;12.57;64.37
46412;BME280;32113;42.012;24.870;2023-02-28T08:26:24;99883.94;;;12.58;64.40
46412;BME280;32113;42.012;24.870;2023-02-28T08:28:50;99889.97;;;12.53;65.11
46412;BME280;32113;42.012;24.870;2023-02-28T08:31:16;99889.94;;;12.59;64.77
46412;BME280;32113;42.012;24.870;2023-02-28T08:33:42;99889.09;;;12.61;64.08
46412;BME280;32113;42.012;24.870;2023-02-28T08:36:09;99889.09;;;12.57;64.12
46412;BME280;32113;42.012;24.870;2023-02-28T08:38:36;99890.78;;;12.59;64.07
46412;BME280;32113;42.012;24.870;2023-02-28T08:41:07;99891.66;;;12.58;63.93
46412;BME280;32113;42.012;24.870;2023-02-28T08:43:35;99890.88;;;12.44;64.77
46412;BME280;32113;42.012;24.870;2023-02-28T08:46:01;99890.91;;;12.36;65.48
46412;BME280;32113;42.012;24.870;2023-02-28T08:48:28;99900.31;;;12.48;65.36
46412;BME280;32113;42.012;24.870;2023-02-28T08:51:03;99895.97;;;12.56;64.51
46412;BME280;32113;42.012;24.870;2023-02-28T08:53:29;99885.63;;;12.63;64.99
46412;BME280;32113;42.012;24.870;2023-02-28T08:56:03;99885.56;;;12.75;64.05
46412;BME280;32113;42.012;24.870;2023-02-28T08:58:29;99888.09;;;12.83;64.34
46412;BME280;32113;42.012;24.870;2023-02-28T09:00:54;99887.13;;;13.01;63.33
46412;BME280;32113;42.012;24.870;2023-02-28T09:03:20;99891.44;;;12.96;62.74
46412;BME280;32113;42.012;24.870;2023-02-28T09:05:54;99885.41;;;12.97;63.56
46412;BME280;32113;42.012;24.870;2023-02-28T09:08:20;99888.88;;;12.93;63.59
46412;BME280;32113;42.012;24.870;2023-02-28T09:10:46;99882.00;;;12.95;63.61
46412;BME280;32113;42.012;24.870;2023-02-28T09:13:12;99875.16;;;12.91;64.44
46412;BME280;32113;42.012;24.870;2023-02-28T09:15:38;99870.84;;;12.93;64.26
46412;BME280;32113;42.012;24.870;2023-02-28T09:18:04;99869.94;;;13.03;63.95
46412;BME280;32113;42.012;24.870;2023-02-28T09:20:29;99872.47;;;13.08;63.32
46412;BME280;32113;42.012;24.870;2023-02-28T09:22:55;99866.44;;;13.13;62.95
46412;BME280;32113;42.012;24.870;2023-02-28T09:25:20;99862.91;;;13.22;62.74
46412;BME280;32113;42.012;24.870;2023-02-28T09:27:46;99872.47;;;13.09;63.39
46412;BME280;32113;42.012;24.870;2023-02-28T09:30:12;99867.38;;;13.00;63.08
46412;BME280;32113;42.012;24.870;2023-02-28T09:32:37;99867.50;;;12.78;64.09
46412;BME280;32113;42.012;24.870;2023-02-28T09:35:03;99861.59;;;12.70;64.27
46412;BME280;32113;42.012;24.870;2023-02-28T09:37:29;99872.72;;;12.69;64.67
46412;BME280;32113;42.012;24.870;2023-02-28T09:39:56;99876.22;;;12.61;64.89
46412;BME280;32113;42.012;24.870;2023-02-28T09:42:27;99870.19;;;12.63;65.56
46412;BME280;32113;42.012;24.870;2023-02-28T09:44:56;99873.63;;;12.61;64.80
46412;BME280;32113;42.012;24.870;2023-02-28T09:47:30;99863.41;;;12.49;65.53
46412;BME280;32113;42.012;24.870;2023-02-28T09:50:03;99866.84;;;12.45;66.26
46412;BME280;32113;42.012;24.870;2023-02-28T09:52:32;99865.19;;;12.39;65.99
46412;BME280;32113;42.012;24.870;2023-02-28T09:57:50;99871.28;;;12.10;67.69
46412;BME280;32113;42.012;24.870;2023-02-28T10:03:04;99861.00;;;12.07;67.89
46412;BME280;32113;42.012;24.870;2023-02-28T10:08:18;99853.31;;;12.07;67.73
46412;BME280;32113;42.012;24.870;2023-02-28T10:10:58;99848.16;;;12.07;68.11
46412;BME280;32113;42.012;24.870;2023-02-28T10:13:35;99853.25;;;12.01;67.99
46412;BME280;32113;42.012;24.870;2023-02-28T10:18:50;99840.44;;;11.93;68.54
46412;BME280;32113;42.012;24.870;2023-02-28T10:21:42;99844.75;;;11.86;68.36
46412;BME280;32113;42.012;24.870;2023-02-28T10:24:26;99849.03;;;11.90;68.77
46412;BME280;32113;42.012;24.870;2023-02-28T10:26:59;99847.28;;;11.94;68.36
46412;BME280;32113;42.012;24.870;2023-02-28T10:29:26;99837.03;;;11.88;68.18
46412;BME280;32113;42.012;24.870;2023-02-28T10:31:52;99844.72;;;11.97;68.30
46412;BME280;32113;42.012;24.870;2023-02-28T10:34:17;99834.44;;;11.95;68.40
46412;BME280;32113;42.012;24.870;2023-02-28T10:36:44;99826.72;;;12.08;67.67
46412;BME280;32113;42.012;24.870;2023-02-28T10:42:05;99831.84;;;12.05;67.25
46412;BME280;32113;42.012;24.870;2023-02-28T10:44:43;99835.25;;;12.04;67.95
46412;BME280;32113;42.012;24.870;2023-02-28T10:47:14;99833.56;;;12.03;67.72
46412;BME280;32113;42.012;24.870;2023-02-28T10:49:47;99828.47;;;11.87;68.55
46412;BME280;32113;42.012;24.870;2023-02-28T10:52:13;99828.47;;;11.79;68.66
46412;BME280;32113;42.012;24.870;2023-02-28T10:54:38;99833.66;;;11.68;69.57
46412;BME280;32113;42.012;24.870;2023-02-28T10:57:16;99827.69;;;11.57;70.41
46412;BME280;32113;42.012;24.870;2023-02-28T10:59:43;99826.84;;;11.56;70.33
46412;BME280;32113;42.012;24.870;2023-02-28T11:02:32;99816.53;;;11.64;70.45
46412;BME280;32113;42.012;24.870;2023-02-28T11:04:58;99816.50;;;11.67;69.63
46412;BME280;32113;42.012;24.870;2023-02-28T11:07:25;99815.66;;;11.70;70.09
46412;BME280;32113;42.012;24.870;2023-02-28T11:09:52;99805.38;;;11.61;70.28
46412;BME280;32113;42.012;24.870;2023-02-28T11:12:38;99800.25;;;11.62;70.28
46412;BME280;32113;42.012;24.870;2023-02-28T11:15:21;99810.50;;;11.70;69.62
46412;BME280;32113;42.012;24.870;2023-02-28T11:20:49;99816.50;;;11.75;69.61
46412;BME280;32113;42.012;24.870;2023-02-28T11:23:16;99809.59;;;11.82;69.84
46412;BME280;32113;42.012;24.870;2023-02-28T11:25:48;99804.47;;;11.85;68.96
46412;BME280;32113;42.012;24.870;2023-02-28T11:28:36;99800.16;;;11.89;69.41
46412;BME280;32113;42.012;24.870;2023-02-28T11:31:16;99808.75;;;11.91;68.96
46412;BME280;32113;42.012;24.870;2023-02-28T11:36:15;99804.50;;;11.80;68.91
46412;BME280;32113;42.012;24.870;2023-02-28T11:38:42;99812.22;;;11.80;68.81
46412;BME280;32113;42.012;24.870;2023-02-28T11:46:41;99793.34;;;11.80;69.52
46412;BME280;32113;42.012;24.870;2023-02-28T12:07:54;99793.28;;;12.00;70.80
46412;BME280;32113;42.012;24.870;2023-02-28T12:10:30;99792.44;;;11.93;71.39
46412;BME280;32113;42.012;24.870;2023-02-28T12:18:47;99787.31;;;11.92;72.09
46412;BME280;32113;42.012;24.870;2023-02-28T12:24:37;99789.88;;;11.89;71.91
46412;BME280;32113;42.012;24.870;2023-02-28T12:27:09;99783.94;;;11.77;72.92
46412;BME280;32113;42.012;24.870;2023-02-28T12:29:49;99789.06;;;11.80;72.75
46412;BME280;32113;42.012;24.870;2023-02-28T12:32:30;99790.78;;;11.83;72.90
46412;BME280;32113;42.012;24.870;2023-02-28T12:37:41;99784.75;;;11.87;73.08
46412;BME280;32113;42.012;24.870;2023-02-28T12:40:19;99781.28;;;11.91;72.91
46412;BME280;32113;42.012;24.870;2023-02-28T12:42:50;99785.59;;;11.88;72.91
46412;BME280;32113;42.012;24.870;2023-02-28T12:45:20;99780.56;;;11.55;75.71
46412;BME280;32113;42.012;24.870;2023-02-28T12:47:56;99776.28;;;11.60;76.29
46412;BME280;32113;42.012;24.870;2023-02-28T12:50:23;99771.13;;;11.59;76.56
46412;BME280;32113;42.012;24.870;2023-02-28T12:59:06;99768.53;;;11.71;76.78
46412;BME280;32113;42.012;24.870;2023-02-28T13:01:57;99770.22;;;11.78;76.31
46412;BME280;32113;42.012;24.870;2023-02-28T13:10:22;99772.03;;;11.42;78.09
46412;BME280;32113;42.012;24.870;2023-02-28T13:12:49;99773.75;;;11.40;79.46
46412;BME280;32113;42.012;24.870;2023-02-28T13:15:19;99777.19;;;11.37;79.48
46412;BME280;32113;42.012;24.870;2023-02-28T13:17:55;99775.47;;;11.41;79.93
46412;BME280;32113;42.012;24.870;2023-02-28T13:20:33;99771.19;;;11.43;79.41
46412;BME280;32113;42.012;24.870;2023-02-28T13:22:59;99769.47;;;11.50;79.49
46412;BME280;32113;42.012;24.870;2023-02-28T13:28:12;99762.56;;;11.63;79.45
46412;BME280;32113;42.012;24.870;2023-02-28T13:44:21;99763.38;;;11.77;77.75
46412;BME280;32113;42.012;24.870;2023-02-28T13:51:51;99759.16;;;11.57;79.93
46412;BME280;32113;42.012;24.870;2023-02-28T13:54:32;99757.41;;;11.61;80.60
46412;BME280;32113;42.012;24.870;2023-02-28T13:57:17;99760.00;;;11.66;79.45
46412;BME280;32113;42.012;24.870;2023-02-28T14:05:31;99754.84;;;11.63;79.41
46412;BME280;32113;42.012;24.870;2023-02-28T14:08:02;99764.25;;;11.61;79.74
46412;BME280;32113;42.012;24.870;2023-02-28T14:10:32;99757.41;;;11.64;79.77
46412;BME280;32113;42.012;24.870;2023-02-28T14:13:49;99769.41;;;11.67;80.04
46412;BME280;32113;42.012;24.870;2023-02-28T14:15:56;99765.94;;;11.74;79.30
46412;BME280;32113;42.012;24.870;2023-02-28T14:18:31;99765.94;;;11.76;78.99
46412;BME280;32113;42.012;24.870;2023-02-28T14:21:46;99771.03;;;11.82;79.08
46412;BME280;32113;42.012;24.870;2023-02-28T14:24:03;99769.34;;;11.86;78.68
46412;BME280;32113;42.012;24.870;2023-02-28T14:32:51;99770.16;;;11.88;78.98
46412;BME280;32113;42.012;24.870;2023-02-28T14:37:53;99774.44;;;11.95;78.43
46412;BME280;32113;42.012;24.870;2023-02-28T14:40:33;99771.88;;;11.93;78.45
46412;BME280;32113;42.012;24.870;2023-02-28T14:43:03;99771.88;;;11.93;78.03
46412;BME280;32113;42.012;24.870;2023-02-28T14:45:30;99775.28;;;11.99;78.03
46412;BME280;32113;42.012;24.870;2023-02-28T14:47:56;99783.03;;;11.92;78.52
46412;BME280;32113;42.012;24.870;2023-02-28T14:50:34;99773.56;;;11.93;77.07
46412;BME280;32113;42.012;24.870;2023-02-28T14:53:00;99778.72;;;11.96;77.34
46412;BME280;32113;42.012;24.870;2023-02-28T14:55:30;99778.72;;;11.96;78.27
46412;BME280;32113;42.012;24.870;2023-02-28T14:58:04;99785.56;;;11.95;77.53
46412;BME280;32113;42.012;24.870;2023-02-28T15:00:33;99787.34;;;11.87;78.16
46412;BME280;32113;42.012;24.870;2023-02-28T15:03:00;99788.16;;;11.92;78.28
46412;BME280;32113;42.012;24.870;2023-02-28T15:05:32;99788.13;;;11.99;78.16
46412;BME280;32113;42.012;24.870;2023-02-28T15:08:16;99789.00;;;11.99;77.48
46412;BME280;32113;42.012;24.870;2023-02-28T15:11:05;99795.84;;;11.99;78.28
46412;BME280;32113;42.012;24.870;2023-02-28T15:13:43;99795.03;;;11.92;77.47
46412;BME280;32113;42.012;24.870;2023-02-28T15:16:33;99795.84;;;11.97;77.73
46412;BME280;32113;42.012;24.870;2023-02-28T15:19:01;99797.56;;;12.00;78.14
46412;BME280;32113;42.012;24.870;2023-02-28T15:21:31;99807.88;;;11.93;77.87